createdAt,value
2019-02-15T00:00:55.849Z,7.40
2019-02-15T00:03:26.090Z,7.40
2019-02-15T00:05:56.554Z,7.40
2019-02-15T00:08:26.790Z,7.40
2019-02-15T00:10:57.282Z,7.30
2019-02-15T00:13:27.460Z,7.30
2019-02-15T00:15:58.122Z,7.30
2019-02-15T00:18:44.666Z,7.40
2019-02-15T00:21:20.065Z,7.40
2019-02-15T00:23:51.142Z,7.40
2019-02-15T00:26:21.739Z,7.40
2019-02-15T00:28:52.940Z,7.50
2019-02-15T00:31:23.406Z,7.50
2019-02-15T00:33:54.243Z,7.50
2019-02-15T00:36:24.522Z,7.50
2019-02-15T00:38:55.302Z,7.50
2019-02-15T00:41:25.623Z,7.40
2019-02-15T00:43:56.358Z,7.30
2019-02-15T00:46:44.275Z,7.30
2019-02-15T00:49:24.524Z,7.30
2019-02-15T00:52:15.412Z,7.20
2019-02-15T00:55:14.004Z,7.10
2019-02-15T00:58:21.258Z,7.10
2019-02-15T01:01:06.354Z,7.20
2019-02-15T01:03:57.288Z,7.20
2019-02-15T01:06:42.906Z,7.30
2019-02-15T01:09:30.778Z,7.40
2019-02-15T01:12:20.198Z,7.40
2019-02-15T01:14:50.444Z,7.50
2019-02-15T01:17:20.856Z,7.60
2019-02-15T01:19:51.150Z,7.70
2019-02-15T01:22:21.684Z,7.70
2019-02-15T01:24:53.048Z,7.70
2019-02-15T01:27:45.386Z,7.60
2019-02-15T01:30:33.224Z,7.50
2019-02-15T01:33:28.442Z,7.50
2019-02-15T01:36:16.243Z,7.40
2019-02-15T01:39:04.619Z,7.40
2019-02-15T01:41:51.932Z,7.20
2019-02-15T01:44:31.034Z,7.10
2019-02-15T01:47:26.400Z,7.00
2019-02-15T01:49:57.121Z,7.00
2019-02-15T01:52:27.484Z,6.90
2019-02-15T01:54:57.862Z,7.00
2019-02-15T01:57:28.109Z,7.00
2019-02-15T01:59:58.387Z,7.00
2019-02-15T02:02:30.085Z,7.00
2019-02-15T02:05:00.675Z,7.00
2019-02-15T02:07:31.139Z,6.90
2019-02-15T02:10:01.393Z,6.90
2019-02-15T02:12:31.860Z,6.80
2019-02-15T02:15:02.231Z,6.90
2019-02-15T02:17:33.247Z,6.90
2019-02-15T02:20:05.023Z,6.90
2019-02-15T02:22:35.625Z,6.80
2019-02-15T02:25:07.347Z,6.80
2019-02-15T02:27:37.829Z,6.90
2019-02-15T02:30:09.879Z,6.90
2019-02-15T02:32:40.734Z,6.90
2019-02-15T02:35:11.355Z,7.00
2019-02-15T02:37:42.093Z,7.10
2019-02-15T02:40:12.294Z,7.10
2019-02-15T02:42:42.543Z,7.00
2019-02-15T02:45:12.747Z,6.90
2019-02-15T02:47:43.013Z,6.90
2019-02-15T02:50:13.819Z,6.90
2019-02-15T02:52:44.185Z,6.90
2019-02-15T02:55:14.867Z,6.90
2019-02-15T02:57:45.138Z,6.90
2019-02-15T03:00:15.965Z,7.00
2019-02-15T03:02:46.524Z,7.10
2019-02-15T03:05:17.594Z,7.20
2019-02-15T03:07:48.017Z,7.10
2019-02-15T03:10:20.526Z,7.20
2019-02-15T03:12:50.931Z,7.20
2019-02-15T03:15:21.455Z,7.20
2019-02-15T03:17:51.625Z,7.00
2019-02-15T03:20:30.922Z,7.10
2019-02-15T03:22:54.046Z,7.00
2019-02-15T03:25:25.495Z,7.10
2019-02-15T03:27:55.737Z,7.20
2019-02-15T03:30:26.274Z,7.10
2019-02-15T03:32:56.516Z,7.10
2019-02-15T03:35:27.340Z,7.00
2019-02-15T03:38:11.684Z,7.00
2019-02-15T03:40:44.498Z,6.90
2019-02-15T03:43:14.703Z,7.00
2019-02-15T03:45:46.350Z,7.00
2019-02-15T03:48:16.548Z,7.10
2019-02-15T03:50:47.108Z,7.10
2019-02-15T03:53:17.320Z,7.10
2019-02-15T03:55:47.635Z,7.10
2019-02-15T03:58:18.070Z,7.00
2019-02-15T04:00:48.355Z,7.00
2019-02-15T04:03:19.104Z,6.90
2019-02-15T04:05:49.660Z,7.00
2019-02-15T04:08:19.924Z,7.00
2019-02-15T04:10:50.412Z,7.00
2019-02-15T04:13:20.661Z,7.00
2019-02-15T04:15:51.159Z,7.00
2019-02-15T04:18:21.458Z,7.00
2019-02-15T04:20:52.502Z,7.00
2019-02-15T04:23:22.692Z,7.00
2019-02-15T04:25:54.212Z,7.00
2019-02-15T04:28:26.641Z,6.80
2019-02-15T04:30:57.123Z,6.90
2019-02-15T04:33:27.354Z,6.80
2019-02-15T04:35:58.779Z,6.70
2019-02-15T04:38:29.034Z,6.80
2019-02-15T04:40:59.512Z,6.70
2019-02-15T04:43:29.762Z,6.80
2019-02-15T04:46:00.081Z,6.90
2019-02-15T04:48:30.325Z,6.90
2019-02-15T04:51:01.036Z,6.90
2019-02-15T04:53:31.313Z,6.90
2019-02-15T04:56:02.079Z,6.90
2019-02-15T04:58:32.325Z,6.80
2019-02-15T05:01:02.834Z,6.80
2019-02-15T05:03:33.099Z,6.80
2019-02-15T05:06:03.701Z,6.70
2019-02-15T05:08:34.421Z,6.80
2019-02-15T05:11:04.613Z,6.70
2019-02-15T05:13:35.217Z,6.60
2019-02-15T05:16:05.476Z,6.60
2019-02-15T05:18:35.943Z,6.60
2019-02-15T05:21:06.224Z,6.50
2019-02-15T05:23:36.939Z,6.60
2019-02-15T05:26:08.345Z,6.70
2019-02-15T05:28:38.825Z,6.60
2019-02-15T05:31:09.107Z,6.70
2019-02-15T05:33:39.397Z,6.70
2019-02-15T05:36:10.569Z,6.70
2019-02-15T05:38:41.390Z,6.70
2019-02-15T05:41:11.991Z,6.70
2019-02-15T05:43:42.271Z,6.70
2019-02-15T05:46:12.547Z,6.70
2019-02-15T05:48:43.195Z,6.70
2019-02-15T05:51:13.523Z,6.70
2019-02-15T05:53:43.765Z,6.70
2019-02-15T05:56:14.160Z,6.70
2019-02-15T05:58:44.648Z,6.70
2019-02-15T06:01:15.616Z,6.70
2019-02-15T06:03:46.062Z,6.60
2019-02-15T06:06:17.356Z,6.70
2019-02-15T06:08:48.018Z,6.70
2019-02-15T06:11:18.316Z,6.80
2019-02-15T06:13:48.592Z,6.70
2019-02-15T06:16:19.324Z,6.80
2019-02-15T06:18:49.605Z,6.90
2019-02-15T06:21:19.897Z,6.90
2019-02-15T06:23:50.159Z,6.80
2019-02-15T06:26:22.058Z,6.80
2019-02-15T06:28:52.365Z,6.80
2019-02-15T06:31:22.607Z,6.80
2019-02-15T06:33:53.021Z,6.90
2019-02-15T06:36:25.593Z,6.90
2019-02-15T06:38:56.221Z,6.90
2019-02-15T06:41:26.707Z,6.90
2019-02-15T06:43:57.281Z,7.00
2019-02-15T06:46:27.584Z,7.20
2019-02-15T06:48:57.938Z,7.10
2019-02-15T06:51:28.311Z,7.10
2019-02-15T06:53:58.791Z,7.10
2019-02-15T06:56:29.233Z,7.20
2019-02-15T06:59:18.911Z,7.20
2019-02-15T07:02:10.314Z,7.20
2019-02-15T07:05:08.819Z,7.10
2019-02-15T07:07:39.438Z,7.10
2019-02-15T07:10:10.169Z,7.10
2019-02-15T07:12:40.598Z,7.20
2019-02-15T07:15:11.223Z,7.20
2019-02-15T07:17:41.574Z,7.20
2019-02-15T07:20:12.237Z,7.30
2019-02-15T07:22:42.508Z,7.30
2019-02-15T07:25:13.047Z,7.30
2019-02-15T07:27:44.275Z,7.40
2019-02-15T07:30:15.751Z,7.30
2019-02-15T07:32:46.300Z,7.40
2019-02-15T07:35:16.570Z,7.40
2019-02-15T07:37:47.837Z,7.40
2019-02-15T07:40:18.312Z,7.50
2019-02-15T07:42:48.888Z,7.50
2019-02-15T07:45:23.006Z,7.50
2019-02-15T07:47:53.662Z,7.60
2019-02-15T07:50:23.998Z,7.80
2019-02-15T07:52:54.442Z,7.90
2019-02-15T07:55:24.784Z,7.90
2019-02-15T07:57:55.322Z,8.20
2019-02-15T08:00:25.664Z,8.10
2019-02-15T08:02:56.206Z,8.20
2019-02-15T08:05:26.452Z,8.30
2019-02-15T08:07:57.578Z,8.30
2019-02-15T08:10:27.834Z,8.30
2019-02-15T08:12:58.166Z,8.30
2019-02-15T08:15:35.974Z,8.40
2019-02-15T08:18:00.518Z,8.40
2019-02-15T08:20:31.134Z,8.50
2019-02-15T08:23:01.301Z,8.50
2019-02-15T08:25:31.927Z,8.60
2019-02-15T08:28:03.266Z,8.50
2019-02-15T08:30:33.717Z,8.60
2019-02-15T08:33:03.971Z,8.70
2019-02-15T08:35:34.234Z,8.80
2019-02-15T08:38:05.146Z,8.80
2019-02-15T08:40:37.388Z,9.00
2019-02-15T08:43:08.050Z,9.00
2019-02-15T08:45:38.308Z,9.00
2019-02-15T08:48:08.594Z,9.00
2019-02-15T08:50:38.940Z,9.00
2019-02-15T08:53:09.517Z,9.00
2019-02-15T08:55:39.843Z,9.10
2019-02-15T08:58:11.443Z,9.20
2019-02-15T09:00:42.354Z,9.30
2019-02-15T09:03:12.862Z,9.50
2019-02-15T09:05:45.256Z,9.50
2019-02-15T09:08:15.804Z,9.50
2019-02-15T09:10:46.339Z,9.50
2019-02-15T09:13:16.625Z,9.50
2019-02-15T09:15:47.061Z,9.40
2019-02-15T09:18:17.363Z,9.50
2019-02-15T09:20:47.661Z,9.50
2019-02-15T09:23:18.348Z,9.50
2019-02-15T09:25:48.646Z,9.50
2019-02-15T09:28:42.933Z,9.50
2019-02-15T09:31:13.191Z,9.70
2019-02-15T09:33:44.120Z,9.70
2019-02-15T09:36:14.493Z,9.70
2019-02-15T09:38:45.481Z,9.70
2019-02-15T09:41:15.741Z,9.70
2019-02-15T09:43:46.549Z,9.80
2019-02-15T09:46:19.871Z,9.80
2019-02-15T09:48:49.147Z,10.00
2019-02-15T09:51:19.387Z,10.10
2019-02-15T09:53:49.671Z,10.30
2019-02-15T09:56:20.115Z,10.40
2019-02-15T09:58:50.399Z,10.40
2019-02-15T10:01:20.628Z,10.50
2019-02-15T10:03:51.110Z,10.50
2019-02-15T10:06:21.404Z,10.20
2019-02-15T10:08:52.759Z,10.20
2019-02-15T10:11:23.051Z,10.40
2019-02-15T10:13:53.515Z,10.50
2019-02-15T10:16:29.790Z,10.40
2019-02-15T10:18:56.107Z,10.00
2019-02-15T10:21:26.503Z,9.70
2019-02-15T10:23:57.164Z,9.90
2019-02-15T10:26:27.461Z,10.30
2019-02-15T10:28:59.138Z,10.30
2019-02-15T10:31:30.006Z,10.20
2019-02-15T10:34:00.828Z,10.30
2019-02-15T10:36:31.099Z,10.40
2019-02-15T10:39:02.187Z,10.40
2019-02-15T10:41:34.048Z,10.40
2019-02-15T10:44:04.765Z,10.40
2019-02-15T10:46:37.928Z,10.30
2019-02-15T10:49:07.555Z,10.10
2019-02-15T10:51:37.846Z,10.20
2019-02-15T10:54:08.332Z,10.30
2019-02-15T10:56:38.696Z,10.30
2019-02-15T10:59:11.128Z,10.30
2019-02-15T11:01:41.148Z,10.20
2019-02-15T11:04:11.755Z,10.40
2019-02-15T11:06:42.183Z,10.40
2019-02-15T11:09:13.664Z,10.60
2019-02-15T11:11:43.971Z,10.50
2019-02-15T11:14:14.531Z,10.40
2019-02-15T11:16:47.292Z,10.20
2019-02-15T11:19:16.949Z,10.30
2019-02-15T11:21:47.237Z,10.20
2019-02-15T11:24:17.630Z,10.00
2019-02-15T11:26:48.051Z,10.00
2019-02-15T11:29:20.114Z,9.90
2019-02-15T11:31:50.963Z,10.10
2019-02-15T11:34:21.275Z,10.30
2019-02-15T11:36:51.532Z,10.50
2019-02-15T11:39:22.198Z,10.60
2019-02-15T11:41:52.623Z,10.40
2019-02-15T11:44:23.641Z,10.70
2019-02-15T11:46:56.739Z,11.00
2019-02-15T11:49:26.210Z,11.00
2019-02-15T11:51:56.462Z,10.80
2019-02-15T11:54:27.062Z,10.90
2019-02-15T11:56:57.368Z,10.80
2019-02-15T11:59:27.917Z,10.00
2019-02-15T12:02:05.770Z,10.10
2019-02-15T12:04:30.446Z,10.40
2019-02-15T12:07:00.719Z,10.60
2019-02-15T12:09:31.431Z,10.70
2019-02-15T12:12:10.139Z,10.90
2019-02-15T12:14:34.271Z,11.10
2019-02-15T12:17:05.875Z,11.20
2019-02-15T12:19:37.056Z,11.00
2019-02-15T12:22:07.353Z,10.60
2019-02-15T12:24:37.936Z,10.80
2019-02-15T12:27:08.176Z,10.40
2019-02-15T12:29:39.628Z,10.40
2019-02-15T12:32:09.936Z,10.30
2019-02-15T12:34:40.654Z,10.30
2019-02-15T12:37:10.964Z,10.30
2019-02-15T12:39:42.036Z,10.30
2019-02-15T12:42:13.918Z,10.20
2019-02-15T12:44:44.392Z,10.20
2019-02-15T12:47:15.329Z,10.40
2019-02-15T12:49:46.276Z,10.60
2019-02-15T12:52:16.535Z,10.80
2019-02-15T12:54:47.334Z,10.70
2019-02-15T12:57:17.586Z,10.50
2019-02-15T12:59:48.186Z,10.50
2019-02-15T13:02:18.461Z,10.60
2019-02-15T13:04:48.730Z,10.20
2019-02-15T13:07:18.999Z,10.30
2019-02-15T13:09:49.691Z,9.80
2019-02-15T13:12:20.460Z,9.70
2019-02-15T13:14:51.058Z,9.70
2019-02-15T13:17:24.646Z,9.80
2019-02-15T13:19:53.762Z,9.60
2019-02-15T13:22:24.389Z,9.50
2019-02-15T13:24:54.662Z,9.60
2019-02-15T13:27:25.450Z,9.40
2019-02-15T13:29:56.181Z,9.50
2019-02-15T13:32:26.548Z,9.20
2019-02-15T13:34:56.807Z,8.90
2019-02-15T13:37:27.079Z,8.80
2019-02-15T13:39:57.826Z,8.80
2019-02-15T13:42:28.282Z,8.90
2019-02-15T13:44:58.955Z,8.80
2019-02-15T13:47:34.658Z,8.90
2019-02-15T13:50:02.978Z,9.10
2019-02-15T13:52:33.391Z,9.10
2019-02-15T13:55:03.923Z,8.80
2019-02-15T13:57:34.228Z,8.50
2019-02-15T14:00:05.309Z,8.60
2019-02-15T14:02:36.211Z,8.40
2019-02-15T14:05:06.831Z,8.30
2019-02-15T14:07:37.061Z,8.30
2019-02-15T14:10:09.955Z,8.50
2019-02-15T14:12:40.519Z,8.70
2019-02-15T14:15:11.284Z,8.60
2019-02-15T14:17:45.499Z,8.20
2019-02-15T14:20:13.933Z,8.20
2019-02-15T14:22:44.217Z,8.30
2019-02-15T14:25:15.281Z,8.20
2019-02-15T14:27:45.625Z,8.20
2019-02-15T14:30:16.671Z,8.10
2019-02-15T14:32:48.227Z,8.10
2019-02-15T14:35:18.935Z,7.90
2019-02-15T14:37:49.360Z,7.90
2019-02-15T14:40:20.300Z,7.80
2019-02-15T14:42:50.626Z,7.70
2019-02-15T14:45:21.719Z,7.60
2019-02-15T14:47:54.919Z,7.60
2019-02-15T14:50:24.259Z,7.70
2019-02-15T14:52:54.577Z,7.50
2019-02-15T14:55:25.058Z,7.40
2019-02-15T14:57:55.311Z,7.20
2019-02-15T15:00:25.575Z,7.30
2019-02-15T15:02:56.610Z,7.40
2019-02-15T15:05:26.897Z,7.30
2019-02-15T15:07:57.275Z,7.20
2019-02-15T15:10:28.035Z,7.00
2019-02-15T15:12:58.715Z,6.80
2019-02-15T15:15:29.089Z,6.70
2019-02-15T15:18:10.735Z,6.60
2019-02-15T15:20:31.413Z,6.60
2019-02-15T15:23:02.052Z,6.40
2019-02-15T15:25:32.311Z,6.10
2019-02-15T15:28:02.787Z,6.10
2019-02-15T15:30:34.553Z,6.00
2019-02-15T15:33:05.430Z,5.90
2019-02-15T15:35:35.687Z,5.70
2019-02-15T15:38:06.002Z,5.90
2019-02-15T15:40:37.012Z,5.90
2019-02-15T15:43:07.317Z,5.90
2019-02-15T15:45:38.002Z,5.80
2019-02-15T15:48:08.285Z,5.80
2019-02-15T15:50:40.150Z,5.80
2019-02-15T15:53:10.820Z,5.80
2019-02-15T15:55:41.407Z,5.70
2019-02-15T15:58:11.706Z,5.70
2019-02-15T16:00:42.456Z,5.60
2019-02-15T16:03:12.907Z,5.80
2019-02-15T16:05:43.381Z,5.80
2019-02-15T16:08:13.693Z,5.90
2019-02-15T16:10:44.910Z,6.00
2019-02-15T16:13:15.189Z,6.00
2019-02-15T16:15:45.694Z,6.20
2019-02-15T16:18:16.064Z,5.90
2019-02-15T16:20:46.689Z,5.70
2019-02-15T16:23:16.872Z,5.80
2019-02-15T16:25:47.406Z,5.60
2019-02-15T16:28:17.766Z,5.60
2019-02-15T16:30:48.832Z,5.60
2019-02-15T16:33:19.107Z,5.50
2019-02-15T16:35:49.596Z,5.50
2019-02-15T16:38:19.904Z,5.70
2019-02-15T16:40:50.940Z,5.70
2019-02-15T16:43:22.602Z,5.50
2019-02-15T16:45:53.400Z,5.40
2019-02-15T16:48:23.594Z,5.50
2019-02-15T16:50:54.178Z,5.60
2019-02-15T16:53:24.457Z,5.60
2019-02-15T16:55:55.006Z,5.60
2019-02-15T16:58:25.328Z,5.50
2019-02-15T17:00:55.653Z,5.40
2019-02-15T17:03:26.373Z,5.40
2019-02-15T17:05:56.717Z,5.40
2019-02-15T17:08:27.437Z,5.30
2019-02-15T17:10:58.115Z,5.20
2019-02-15T17:13:28.836Z,5.20
2019-02-15T17:15:59.160Z,5.30
2019-02-15T17:18:30.105Z,5.40
2019-02-15T17:21:00.447Z,5.30
2019-02-15T17:23:31.157Z,5.30
2019-02-15T17:26:01.638Z,5.40
2019-02-15T17:28:34.386Z,5.40
2019-02-15T17:31:05.957Z,5.40
2019-02-15T17:33:36.706Z,5.50
2019-02-15T17:36:07.051Z,5.50
2019-02-15T17:38:37.344Z,5.40
2019-02-15T17:41:08.274Z,5.30
2019-02-15T17:43:38.578Z,5.40
2019-02-15T17:46:09.022Z,5.20
2019-02-15T17:48:39.241Z,5.00
2019-02-15T17:51:09.711Z,4.90
2019-02-15T17:53:40.302Z,4.90
2019-02-15T17:56:10.579Z,5.00
2019-02-15T17:58:41.056Z,4.70
2019-02-15T18:01:11.329Z,4.70
2019-02-15T18:03:41.636Z,4.70
2019-02-15T18:06:12.305Z,4.70
2019-02-15T18:08:42.598Z,4.80
2019-02-15T18:11:13.059Z,4.80
2019-02-15T18:13:43.311Z,4.70
2019-02-15T18:16:13.847Z,4.60
2019-02-15T18:18:44.117Z,4.70
2019-02-15T18:21:14.857Z,4.80
2019-02-15T18:23:45.381Z,4.80
2019-02-15T18:26:15.911Z,5.10
2019-02-15T18:28:47.566Z,4.90
2019-02-15T18:31:18.819Z,4.90
2019-02-15T18:33:49.147Z,5.00
2019-02-15T18:36:19.632Z,4.80
2019-02-15T18:38:49.881Z,5.10
2019-02-15T18:41:23.703Z,5.00
2019-02-15T18:43:54.703Z,4.90
2019-02-15T18:46:25.687Z,4.90
2019-02-15T18:48:56.051Z,4.90
2019-02-15T18:51:26.855Z,5.00
2019-02-15T18:53:57.245Z,4.90
2019-02-15T18:56:27.983Z,5.00
2019-02-15T18:58:58.653Z,5.00
2019-02-15T19:01:29.143Z,5.00
2019-02-15T19:03:59.427Z,4.90
2019-02-15T19:06:30.164Z,4.80
2019-02-15T19:09:00.624Z,4.70
2019-02-15T19:11:33.429Z,4.90
2019-02-15T19:14:03.848Z,4.80
2019-02-15T19:16:34.503Z,4.80
2019-02-15T19:19:04.797Z,4.70
2019-02-15T19:21:35.341Z,4.70
2019-02-15T19:24:06.672Z,4.80
2019-02-15T19:26:37.277Z,4.90
2019-02-15T19:29:07.720Z,4.90
2019-02-15T19:31:39.809Z,5.00
2019-02-15T19:34:11.427Z,5.00
2019-02-15T19:36:42.100Z,4.90
2019-02-15T19:39:14.122Z,4.80
2019-02-15T19:41:45.029Z,5.00
2019-02-15T19:44:15.384Z,4.90
2019-02-15T19:46:45.596Z,4.80
2019-02-15T19:49:16.294Z,4.90
2019-02-15T19:51:46.486Z,4.90
2019-02-15T19:54:17.367Z,4.90
2019-02-15T19:56:47.647Z,4.80
2019-02-15T19:59:18.398Z,5.00
2019-02-15T20:01:48.682Z,5.00
2019-02-15T20:04:19.450Z,4.80
2019-02-15T20:06:49.868Z,4.80
2019-02-15T20:09:20.533Z,5.00
2019-02-15T20:11:51.553Z,5.10
2019-02-15T20:14:22.182Z,5.20
2019-02-15T20:16:52.522Z,5.20
2019-02-15T20:19:23.223Z,5.00
2019-02-15T20:21:53.532Z,5.10
2019-02-15T20:24:24.310Z,5.10
2019-02-15T20:26:54.662Z,5.40
2019-02-15T20:29:25.384Z,5.50
2019-02-15T20:31:56.220Z,5.40
2019-02-15T20:34:27.047Z,5.40
2019-02-15T20:36:58.519Z,5.30
2019-02-15T20:39:29.171Z,5.00
2019-02-15T20:41:59.591Z,4.80
2019-02-15T20:44:30.415Z,4.80
2019-02-15T20:47:00.703Z,5.10
2019-02-15T20:49:31.359Z,5.00
2019-02-15T20:52:01.648Z,4.90
2019-02-15T20:54:32.227Z,4.90
2019-02-15T20:57:02.517Z,4.90
2019-02-15T20:59:33.083Z,5.00
2019-02-15T21:02:03.366Z,5.00
2019-02-15T21:04:34.006Z,4.90
2019-02-15T21:07:04.173Z,5.10
2019-02-15T21:09:34.570Z,5.00
2019-02-15T21:12:04.902Z,5.20
2019-02-15T21:14:35.194Z,5.30
2019-02-15T21:17:05.453Z,5.40
2019-02-15T21:19:35.941Z,5.30
2019-02-15T21:22:06.252Z,5.30
2019-02-15T21:24:36.598Z,4.80
2019-02-15T21:27:07.231Z,4.80
2019-02-15T21:29:44.405Z,4.80
2019-02-15T21:32:24.568Z,5.00
2019-02-15T21:34:54.935Z,4.90
2019-02-15T21:37:25.621Z,4.80
2019-02-15T21:39:55.927Z,4.90
2019-02-15T21:42:27.357Z,4.80
2019-02-15T21:44:57.657Z,4.70
2019-02-15T21:47:28.357Z,4.90
2019-02-15T21:49:58.653Z,5.10
2019-02-15T21:52:29.108Z,5.20
2019-02-15T21:54:59.413Z,5.30
2019-02-15T21:57:29.713Z,5.40
2019-02-15T22:00:01.637Z,5.50
2019-02-15T22:02:32.997Z,5.40
2019-02-15T22:05:03.587Z,5.50
2019-02-15T22:07:33.853Z,5.60
2019-02-15T22:10:04.332Z,5.60
2019-02-15T22:12:34.900Z,5.40
2019-02-15T22:15:05.702Z,5.30
2019-02-15T22:17:35.986Z,5.20
2019-02-15T22:20:07.139Z,5.20
2019-02-15T22:22:37.394Z,5.00
2019-02-15T22:25:07.817Z,5.10
2019-02-15T22:27:38.353Z,5.40
2019-02-15T22:30:11.075Z,5.40
2019-02-15T22:32:42.748Z,5.20
2019-02-15T22:35:13.193Z,5.10
2019-02-15T22:37:43.869Z,5.10
2019-02-15T22:40:28.383Z,5.00
2019-02-15T22:43:09.862Z,5.00
2019-02-15T22:45:40.161Z,5.00
2019-02-15T22:48:10.439Z,4.90
2019-02-15T22:50:41.078Z,4.90
2019-02-15T22:53:11.359Z,4.80
2019-02-15T22:55:41.834Z,4.70
2019-02-15T22:58:12.134Z,4.90
2019-02-15T23:00:50.563Z,5.00
2019-02-15T23:03:23.833Z,5.00
2019-02-15T23:05:54.392Z,5.00
2019-02-15T23:08:24.628Z,5.10
2019-02-15T23:10:55.071Z,5.30
2019-02-15T23:13:26.296Z,5.30
2019-02-15T23:15:56.578Z,5.40
2019-02-15T23:18:26.876Z,5.40
2019-02-15T23:20:57.275Z,5.20
2019-02-15T23:23:27.580Z,5.10
2019-02-15T23:25:57.904Z,5.00
2019-02-15T23:28:28.459Z,5.10
2019-02-15T23:30:58.784Z,4.90
2019-02-15T23:33:29.698Z,4.90
2019-02-15T23:36:00.430Z,4.70
2019-02-15T23:38:30.682Z,4.80
2019-02-15T23:41:00.880Z,4.60
2019-02-15T23:43:31.404Z,4.70
2019-02-15T23:46:01.712Z,4.70
2019-02-15T23:48:31.970Z,4.70
2019-02-15T23:51:02.355Z,4.60
2019-02-15T23:53:32.671Z,4.60
2019-02-15T23:56:04.975Z,4.50
2019-02-15T23:58:35.258Z,4.40
